sensor_id;sensor_type;location;lat;lon;timestamp;P1;durP1;ratioP1;P2;durP2;ratioP2
32872;SDS011;19224;52.462;16.898;2023-05-29T00:01:53;8.43;;;3.77;;
32872;SDS011;19224;52.462;16.898;2023-05-29T00:04:31;12.63;;;4.90;;
32872;SDS011;19224;52.462;16.898;2023-05-29T00:06:59;10.85;;;5.30;;
32872;SDS011;19224;52.462;16.898;2023-05-29T00:09:29;12.88;;;5.30;;
32872;SDS011;19224;52.462;16.898;2023-05-29T00:12:01;10.23;;;4.80;;
32872;SDS011;19224;52.462;16.898;2023-05-29T00:14:33;15.55;;;4.58;;
32872;SDS011;19224;52.462;16.898;2023-05-29T00:17:03;8.83;;;4.12;;
32872;SDS011;19224;52.462;16.898;2023-05-29T00:19:34;16.15;;;4.70;;
32872;SDS011;19224;52.462;16.898;2023-05-29T00:22:05;13.93;;;5.33;;
32872;SDS011;19224;52.462;16.898;2023-05-29T00:24:36;18.73;;;6.75;;
32872;SDS011;19224;52.462;16.898;2023-05-29T00:27:06;11.03;;;5.25;;
32872;SDS011;19224;52.462;16.898;2023-05-29T00:29:38;7.92;;;4.08;;
32872;SDS011;19224;52.462;16.898;2023-05-29T00:32:09;9.73;;;3.98;;
32872;SDS011;19224;52.462;16.898;2023-05-29T00:34:39;12.47;;;4.67;;
32872;SDS011;19224;52.462;16.898;2023-05-29T00:37:12;8.98;;;4.67;;
32872;SDS011;19224;52.462;16.898;2023-05-29T00:39:44;11.95;;;4.70;;
32872;SDS011;19224;52.462;16.898;2023-05-29T00:42:14;10.55;;;4.17;;
32872;SDS011;19224;52.462;16.898;2023-05-29T00:44:45;9.08;;;5.05;;
32872;SDS011;19224;52.462;16.898;2023-05-29T00:47:15;10.15;;;5.22;;
32872;SDS011;19224;52.462;16.898;2023-05-29T00:49:46;8.85;;;4.35;;
32872;SDS011;19224;52.462;16.898;2023-05-29T00:52:19;9.30;;;4.40;;
32872;SDS011;19224;52.462;16.898;2023-05-29T00:54:50;8.05;;;3.77;;
32872;SDS011;19224;52.462;16.898;2023-05-29T00:57:21;12.35;;;4.25;;
32872;SDS011;19224;52.462;16.898;2023-05-29T00:59:52;9.83;;;4.50;;
32872;SDS011;19224;52.462;16.898;2023-05-29T01:02:25;11.48;;;4.37;;
32872;SDS011;19224;52.462;16.898;2023-05-29T01:04:58;9.58;;;4.15;;
32872;SDS011;19224;52.462;16.898;2023-05-29T01:07:29;12.33;;;3.35;;
32872;SDS011;19224;52.462;16.898;2023-05-29T01:10:00;6.03;;;3.10;;
32872;SDS011;19224;52.462;16.898;2023-05-29T01:18:04;7.90;;;3.70;;
32872;SDS011;19224;52.462;16.898;2023-05-29T01:20:52;7.60;;;4.20;;
32872;SDS011;19224;52.462;16.898;2023-05-29T01:26:45;7.10;;;3.85;;
32872;SDS011;19224;52.462;16.898;2023-05-29T01:29:29;9.93;;;3.62;;
32872;SDS011;19224;52.462;16.898;2023-05-29T01:32:03;10.75;;;3.62;;
32872;SDS011;19224;52.462;16.898;2023-05-29T01:34:35;9.25;;;3.60;;
32872;SDS011;19224;52.462;16.898;2023-05-29T01:37:05;5.20;;;3.42;;
32872;SDS011;19224;52.462;16.898;2023-05-29T01:39:36;5.95;;;3.50;;
32872;SDS011;19224;52.462;16.898;2023-05-29T01:42:07;10.20;;;3.80;;
32872;SDS011;19224;52.462;16.898;2023-05-29T01:44:38;7.55;;;3.83;;
32872;SDS011;19224;52.462;16.898;2023-05-29T01:47:09;9.18;;;3.77;;
32872;SDS011;19224;52.462;16.898;2023-05-29T01:49:40;7.12;;;3.65;;
32872;SDS011;19224;52.462;16.898;2023-05-29T01:52:12;7.00;;;3.10;;
32872;SDS011;19224;52.462;16.898;2023-05-29T01:54:43;8.23;;;3.17;;
32872;SDS011;19224;52.462;16.898;2023-05-29T01:57:13;12.75;;;3.85;;
32872;SDS011;19224;52.462;16.898;2023-05-29T01:59:45;7.33;;;3.02;;
32872;SDS011;19224;52.462;16.898;2023-05-29T02:02:17;10.90;;;4.08;;
32872;SDS011;19224;52.462;16.898;2023-05-29T02:04:52;10.48;;;4.05;;
32872;SDS011;19224;52.462;16.898;2023-05-29T02:07:23;9.70;;;3.83;;
32872;SDS011;19224;52.462;16.898;2023-05-29T02:09:54;9.65;;;4.00;;
32872;SDS011;19224;52.462;16.898;2023-05-29T02:12:24;9.20;;;3.58;;
32872;SDS011;19224;52.462;16.898;2023-05-29T02:14:55;8.28;;;3.75;;
32872;SDS011;19224;52.462;16.898;2023-05-29T02:17:27;6.75;;;3.58;;
32872;SDS011;19224;52.462;16.898;2023-05-29T02:19:58;6.10;;;3.20;;
32872;SDS011;19224;52.462;16.898;2023-05-29T02:22:29;8.00;;;3.42;;
32872;SDS011;19224;52.462;16.898;2023-05-29T02:24:59;6.33;;;3.60;;
32872;SDS011;19224;52.462;16.898;2023-05-29T02:27:30;8.78;;;3.50;;
32872;SDS011;19224;52.462;16.898;2023-05-29T02:30:01;6.08;;;3.58;;
32872;SDS011;19224;52.462;16.898;2023-05-29T02:32:33;7.97;;;3.85;;
32872;SDS011;19224;52.462;16.898;2023-05-29T02:35:03;9.40;;;3.80;;
32872;SDS011;19224;52.462;16.898;2023-05-29T02:37:34;11.90;;;3.30;;
32872;SDS011;19224;52.462;16.898;2023-05-29T02:40:05;7.20;;;3.62;;
32872;SDS011;19224;52.462;16.898;2023-05-29T02:42:36;8.58;;;3.70;;
32872;SDS011;19224;52.462;16.898;2023-05-29T02:45:07;12.28;;;4.17;;
32872;SDS011;19224;52.462;16.898;2023-05-29T02:47:38;8.80;;;4.15;;
32872;SDS011;19224;52.462;16.898;2023-05-29T02:50:10;10.53;;;3.80;;
32872;SDS011;19224;52.462;16.898;2023-05-29T02:52:42;9.23;;;4.22;;
32872;SDS011;19224;52.462;16.898;2023-05-29T02:55:14;11.20;;;4.12;;
32872;SDS011;19224;52.462;16.898;2023-05-29T02:57:45;7.90;;;3.92;;
32872;SDS011;19224;52.462;16.898;2023-05-29T03:00:17;9.45;;;4.15;;
32872;SDS011;19224;52.462;16.898;2023-05-29T03:02:48;7.95;;;3.70;;
32872;SDS011;19224;52.462;16.898;2023-05-29T03:05:19;8.50;;;3.60;;
32872;SDS011;19224;52.462;16.898;2023-05-29T03:07:49;9.48;;;4.15;;
32872;SDS011;19224;52.462;16.898;2023-05-29T03:10:20;11.83;;;3.45;;
32872;SDS011;19224;52.462;16.898;2023-05-29T03:12:50;6.67;;;3.58;;
32872;SDS011;19224;52.462;16.898;2023-05-29T03:15:22;14.38;;;4.62;;
32872;SDS011;19224;52.462;16.898;2023-05-29T03:17:52;8.65;;;4.00;;
32872;SDS011;19224;52.462;16.898;2023-05-29T03:20:24;6.92;;;3.72;;
32872;SDS011;19224;52.462;16.898;2023-05-29T03:22:55;14.07;;;3.80;;
32872;SDS011;19224;52.462;16.898;2023-05-29T03:25:25;8.05;;;4.08;;
32872;SDS011;19224;52.462;16.898;2023-05-29T03:27:56;12.65;;;4.22;;
32872;SDS011;19224;52.462;16.898;2023-05-29T03:30:26;12.20;;;4.03;;
32872;SDS011;19224;52.462;16.898;2023-05-29T03:32:56;10.35;;;3.72;;
32872;SDS011;19224;52.462;16.898;2023-05-29T03:35:29;11.22;;;3.87;;
32872;SDS011;19224;52.462;16.898;2023-05-29T03:38:01;8.85;;;3.75;;
32872;SDS011;19224;52.462;16.898;2023-05-29T03:40:32;6.90;;;3.85;;
32872;SDS011;19224;52.462;16.898;2023-05-29T03:43:04;6.75;;;3.55;;
32872;SDS011;19224;52.462;16.898;2023-05-29T03:45:37;10.23;;;3.55;;
32872;SDS011;19224;52.462;16.898;2023-05-29T03:48:08;8.63;;;4.05;;
32872;SDS011;19224;52.462;16.898;2023-05-29T03:50:38;9.88;;;4.33;;
32872;SDS011;19224;52.462;16.898;2023-05-29T03:53:09;12.30;;;4.35;;
32872;SDS011;19224;52.462;16.898;2023-05-29T03:55:39;13.22;;;4.28;;
32872;SDS011;19224;52.462;16.898;2023-05-29T03:58:09;8.00;;;3.98;;
32872;SDS011;19224;52.462;16.898;2023-05-29T04:00:39;10.68;;;4.08;;
32872;SDS011;19224;52.462;16.898;2023-05-29T04:03:10;40.85;;;5.47;;
32872;SDS011;19224;52.462;16.898;2023-05-29T04:05:41;11.55;;;4.20;;
32872;SDS011;19224;52.462;16.898;2023-05-29T04:08:11;13.35;;;4.30;;
32872;SDS011;19224;52.462;16.898;2023-05-29T04:10:41;11.60;;;4.40;;
32872;SDS011;19224;52.462;16.898;2023-05-29T04:13:12;11.33;;;4.83;;
32872;SDS011;19224;52.462;16.898;2023-05-29T04:15:42;9.30;;;4.22;;
32872;SDS011;19224;52.462;16.898;2023-05-29T04:18:13;12.47;;;4.20;;
32872;SDS011;19224;52.462;16.898;2023-05-29T04:20:43;10.60;;;4.30;;
32872;SDS011;19224;52.462;16.898;2023-05-29T04:23:14;7.95;;;3.50;;
32872;SDS011;19224;52.462;16.898;2023-05-29T04:25:45;13.35;;;3.83;;
32872;SDS011;19224;52.462;16.898;2023-05-29T04:28:18;10.72;;;3.80;;
32872;SDS011;19224;52.462;16.898;2023-05-29T04:30:51;9.30;;;4.08;;
32872;SDS011;19224;52.462;16.898;2023-05-29T04:33:22;6.72;;;3.80;;
32872;SDS011;19224;52.462;16.898;2023-05-29T04:35:55;8.15;;;3.70;;
32872;SDS011;19224;52.462;16.898;2023-05-29T04:38:28;8.40;;;3.77;;
32872;SDS011;19224;52.462;16.898;2023-05-29T04:40:59;10.55;;;4.15;;
32872;SDS011;19224;52.462;16.898;2023-05-29T04:43:29;8.30;;;3.83;;
32872;SDS011;19224;52.462;16.898;2023-05-29T04:45:59;9.38;;;4.22;;
32872;SDS011;19224;52.462;16.898;2023-05-29T04:48:30;13.13;;;4.47;;
32872;SDS011;19224;52.462;16.898;2023-05-29T04:51:00;16.77;;;4.10;;
32872;SDS011;19224;52.462;16.898;2023-05-29T04:53:30;16.50;;;4.22;;
32872;SDS011;19224;52.462;16.898;2023-05-29T04:56:01;17.52;;;4.45;;
32872;SDS011;19224;52.462;16.898;2023-05-29T04:58:32;18.17;;;4.95;;
32872;SDS011;19224;52.462;16.898;2023-05-29T05:01:02;22.50;;;4.08;;
32872;SDS011;19224;52.462;16.898;2023-05-29T05:03:33;15.18;;;4.47;;
32872;SDS011;19224;52.462;16.898;2023-05-29T05:06:03;24.07;;;10.03;;
32872;SDS011;19224;52.462;16.898;2023-05-29T05:08:34;12.20;;;4.87;;
32872;SDS011;19224;52.462;16.898;2023-05-29T05:11:05;15.88;;;4.35;;
32872;SDS011;19224;52.462;16.898;2023-05-29T05:13:35;19.05;;;4.37;;
32872;SDS011;19224;52.462;16.898;2023-05-29T05:16:06;8.45;;;3.85;;
32872;SDS011;19224;52.462;16.898;2023-05-29T05:18:36;16.20;;;4.72;;
32872;SDS011;19224;52.462;16.898;2023-05-29T05:21:12;20.05;;;4.33;;
32872;SDS011;19224;52.462;16.898;2023-05-29T05:23:42;13.53;;;3.85;;
32872;SDS011;19224;52.462;16.898;2023-05-29T05:26:14;11.88;;;4.50;;
32872;SDS011;19224;52.462;16.898;2023-05-29T05:28:49;14.05;;;4.00;;
32872;SDS011;19224;52.462;16.898;2023-05-29T05:31:20;16.10;;;4.37;;
32872;SDS011;19224;52.462;16.898;2023-05-29T05:33:51;11.10;;;4.22;;
32872;SDS011;19224;52.462;16.898;2023-05-29T05:36:23;16.37;;;4.08;;
32872;SDS011;19224;52.462;16.898;2023-05-29T05:38:54;14.53;;;3.70;;
32872;SDS011;19224;52.462;16.898;2023-05-29T05:41:24;11.28;;;3.80;;
32872;SDS011;19224;52.462;16.898;2023-05-29T05:43:54;15.48;;;4.42;;
32872;SDS011;19224;52.462;16.898;2023-05-29T05:46:26;12.03;;;3.85;;
32872;SDS011;19224;52.462;16.898;2023-05-29T05:48:56;8.20;;;4.00;;
32872;SDS011;19224;52.462;16.898;2023-05-29T05:51:28;8.45;;;4.08;;
32872;SDS011;19224;52.462;16.898;2023-05-29T05:53:58;10.35;;;4.45;;
32872;SDS011;19224;52.462;16.898;2023-05-29T05:56:29;14.15;;;4.20;;
32872;SDS011;19224;52.462;16.898;2023-05-29T05:58:59;9.80;;;3.70;;
32872;SDS011;19224;52.462;16.898;2023-05-29T06:01:29;15.93;;;4.70;;
32872;SDS011;19224;52.462;16.898;2023-05-29T06:04:00;16.27;;;4.53;;
32872;SDS011;19224;52.462;16.898;2023-05-29T06:06:31;15.15;;;4.83;;
32872;SDS011;19224;52.462;16.898;2023-05-29T06:09:01;20.40;;;4.90;;
32872;SDS011;19224;52.462;16.898;2023-05-29T06:11:32;17.32;;;4.80;;
32872;SDS011;19224;52.462;16.898;2023-05-29T06:14:02;12.50;;;4.92;;
32872;SDS011;19224;52.462;16.898;2023-05-29T06:16:33;17.40;;;4.60;;
32872;SDS011;19224;52.462;16.898;2023-05-29T06:19:03;13.22;;;4.33;;
32872;SDS011;19224;52.462;16.898;2023-05-29T06:21:33;15.25;;;3.90;;
32872;SDS011;19224;52.462;16.898;2023-05-29T06:24:05;19.37;;;4.00;;
32872;SDS011;19224;52.462;16.898;2023-05-29T06:26:36;22.65;;;4.40;;
32872;SDS011;19224;52.462;16.898;2023-05-29T06:29:06;11.30;;;3.58;;
32872;SDS011;19224;52.462;16.898;2023-05-29T06:31:36;13.30;;;4.20;;
32872;SDS011;19224;52.462;16.898;2023-05-29T06:34:06;14.05;;;4.42;;
32872;SDS011;19224;52.462;16.898;2023-05-29T06:36:37;13.48;;;3.35;;
32872;SDS011;19224;52.462;16.898;2023-05-29T06:39:09;11.53;;;3.70;;
32872;SDS011;19224;52.462;16.898;2023-05-29T06:41:40;17.20;;;3.58;;
32872;SDS011;19224;52.462;16.898;2023-05-29T06:44:10;14.43;;;4.12;;
32872;SDS011;19224;52.462;16.898;2023-05-29T06:46:40;8.78;;;3.22;;
32872;SDS011;19224;52.462;16.898;2023-05-29T06:49:11;14.50;;;3.83;;
32872;SDS011;19224;52.462;16.898;2023-05-29T06:51:42;13.20;;;3.55;;
32872;SDS011;19224;52.462;16.898;2023-05-29T06:54:13;11.70;;;3.15;;
32872;SDS011;19224;52.462;16.898;2023-05-29T06:56:43;26.12;;;3.90;;
32872;SDS011;19224;52.462;16.898;2023-05-29T06:59:14;24.80;;;4.53;;
32872;SDS011;19224;52.462;16.898;2023-05-29T07:01:44;12.60;;;3.20;;
32872;SDS011;19224;52.462;16.898;2023-05-29T07:04:15;7.03;;;3.20;;
32872;SDS011;19224;52.462;16.898;2023-05-29T07:06:45;15.10;;;3.55;;
32872;SDS011;19224;52.462;16.898;2023-05-29T07:09:15;18.20;;;3.60;;
32872;SDS011;19224;52.462;16.898;2023-05-29T07:11:46;6.78;;;3.02;;
32872;SDS011;19224;52.462;16.898;2023-05-29T07:14:16;12.63;;;4.00;;
32872;SDS011;19224;52.462;16.898;2023-05-29T07:16:46;14.28;;;4.08;;
32872;SDS011;19224;52.462;16.898;2023-05-29T07:19:16;7.92;;;3.12;;
32872;SDS011;19224;52.462;16.898;2023-05-29T07:21:46;13.95;;;3.72;;
32872;SDS011;19224;52.462;16.898;2023-05-29T07:24:17;10.70;;;3.30;;
32872;SDS011;19224;52.462;16.898;2023-05-29T07:26:48;8.23;;;3.20;;
32872;SDS011;19224;52.462;16.898;2023-05-29T07:29:18;11.93;;;3.35;;
32872;SDS011;19224;52.462;16.898;2023-05-29T07:31:50;14.83;;;4.10;;
32872;SDS011;19224;52.462;16.898;2023-05-29T07:34:20;9.98;;;3.92;;
32872;SDS011;19224;52.462;16.898;2023-05-29T07:39:33;8.75;;;3.20;;
32872;SDS011;19224;52.462;16.898;2023-05-29T07:42:04;7.35;;;2.90;;
32872;SDS011;19224;52.462;16.898;2023-05-29T07:44:35;6.55;;;2.70;;
32872;SDS011;19224;52.462;16.898;2023-05-29T07:47:05;8.75;;;3.58;;
32872;SDS011;19224;52.462;16.898;2023-05-29T07:49:36;10.18;;;3.22;;
32872;SDS011;19224;52.462;16.898;2023-05-29T07:52:06;13.88;;;3.20;;
32872;SDS011;19224;52.462;16.898;2023-05-29T07:54:37;12.25;;;3.58;;
32872;SDS011;19224;52.462;16.898;2023-05-29T07:57:07;9.00;;;3.22;;
32872;SDS011;19224;52.462;16.898;2023-05-29T07:59:43;10.18;;;3.10;;
32872;SDS011;19224;52.462;16.898;2023-05-29T08:02:10;7.95;;;3.20;;
32872;SDS011;19224;52.462;16.898;2023-05-29T08:04:41;8.90;;;2.70;;
32872;SDS011;19224;52.462;16.898;2023-05-29T08:07:11;8.45;;;3.37;;
32872;SDS011;19224;52.462;16.898;2023-05-29T08:09:42;8.55;;;2.52;;
32872;SDS011;19224;52.462;16.898;2023-05-29T08:12:12;11.60;;;3.42;;
32872;SDS011;19224;52.462;16.898;2023-05-29T08:14:42;5.33;;;2.90;;
32872;SDS011;19224;52.462;16.898;2023-05-29T08:17:13;12.18;;;3.05;;
32872;SDS011;19224;52.462;16.898;2023-05-29T08:19:43;10.08;;;3.70;;
32872;SDS011;19224;52.462;16.898;2023-05-29T08:22:13;11.70;;;4.03;;
32872;SDS011;19224;52.462;16.898;2023-05-29T08:24:44;10.30;;;3.85;;
32872;SDS011;19224;52.462;16.898;2023-05-29T08:27:14;10.30;;;3.47;;
32872;SDS011;19224;52.462;16.898;2023-05-29T08:29:45;10.15;;;3.17;;
32872;SDS011;19224;52.462;16.898;2023-05-29T08:32:15;6.87;;;2.67;;
32872;SDS011;19224;52.462;16.898;2023-05-29T08:34:45;7.72;;;2.60;;
32872;SDS011;19224;52.462;16.898;2023-05-29T08:37:16;6.37;;;2.58;;
32872;SDS011;19224;52.462;16.898;2023-05-29T08:39:54;10.90;;;3.37;;
32872;SDS011;19224;52.462;16.898;2023-05-29T08:42:26;5.85;;;2.40;;
32872;SDS011;19224;52.462;16.898;2023-05-29T08:44:57;7.20;;;2.70;;
32872;SDS011;19224;52.462;16.898;2023-05-29T08:47:33;7.47;;;2.70;;
32872;SDS011;19224;52.462;16.898;2023-05-29T08:50:05;8.30;;;2.70;;
32872;SDS011;19224;52.462;16.898;2023-05-29T08:52:36;10.53;;;2.70;;
32872;SDS011;19224;52.462;16.898;2023-05-29T08:55:08;7.65;;;2.90;;
32872;SDS011;19224;52.462;16.898;2023-05-29T08:57:39;6.00;;;2.62;;
32872;SDS011;19224;52.462;16.898;2023-05-29T09:00:14;8.35;;;3.17;;
32872;SDS011;19224;52.462;16.898;2023-05-29T09:02:47;7.70;;;2.98;;
32872;SDS011;19224;52.462;16.898;2023-05-29T09:05:19;18.15;;;3.40;;
32872;SDS011;19224;52.462;16.898;2023-05-29T09:07:50;8.75;;;2.98;;
32872;SDS011;19224;52.462;16.898;2023-05-29T09:10:21;7.40;;;2.62;;
32872;SDS011;19224;52.462;16.898;2023-05-29T09:12:53;4.70;;;2.47;;
32872;SDS011;19224;52.462;16.898;2023-05-29T09:15:23;6.75;;;3.00;;
32872;SDS011;19224;52.462;16.898;2023-05-29T09:17:54;9.28;;;2.80;;
32872;SDS011;19224;52.462;16.898;2023-05-29T09:20:26;11.08;;;3.00;;
32872;SDS011;19224;52.462;16.898;2023-05-29T09:22:58;10.38;;;3.02;;
32872;SDS011;19224;52.462;16.898;2023-05-29T09:25:38;11.90;;;3.37;;
32872;SDS011;19224;52.462;16.898;2023-05-29T09:28:10;9.55;;;2.98;;
32872;SDS011;19224;52.462;16.898;2023-05-29T09:30:43;6.37;;;2.80;;
32872;SDS011;19224;52.462;16.898;2023-05-29T09:33:15;5.45;;;2.70;;
32872;SDS011;19224;52.462;16.898;2023-05-29T09:35:47;7.65;;;3.02;;
32872;SDS011;19224;52.462;16.898;2023-05-29T09:38:19;8.38;;;2.60;;
32872;SDS011;19224;52.462;16.898;2023-05-29T09:40:50;7.08;;;2.95;;
32872;SDS011;19224;52.462;16.898;2023-05-29T09:43:22;7.30;;;3.00;;
32872;SDS011;19224;52.462;16.898;2023-05-29T09:45:52;13.98;;;3.05;;
32872;SDS011;19224;52.462;16.898;2023-05-29T09:48:23;5.67;;;3.05;;
32872;SDS011;19224;52.462;16.898;2023-05-29T09:50:54;17.70;;;2.95;;
32872;SDS011;19224;52.462;16.898;2023-05-29T09:53:25;7.25;;;2.62;;
32872;SDS011;19224;52.462;16.898;2023-05-29T09:55:56;13.60;;;3.35;;
32872;SDS011;19224;52.462;16.898;2023-05-29T09:58:27;3.95;;;2.45;;
32872;SDS011;19224;52.462;16.898;2023-05-29T10:00:58;5.15;;;2.80;;
32872;SDS011;19224;52.462;16.898;2023-05-29T10:03:29;8.33;;;3.12;;
32872;SDS011;19224;52.462;16.898;2023-05-29T10:06:01;3.80;;;2.45;;
32872;SDS011;19224;52.462;16.898;2023-05-29T10:08:37;8.40;;;2.92;;
32872;SDS011;19224;52.462;16.898;2023-05-29T10:11:11;7.97;;;2.80;;
32872;SDS011;19224;52.462;16.898;2023-05-29T10:13:43;5.87;;;2.72;;
32872;SDS011;19224;52.462;16.898;2023-05-29T10:16:19;12.53;;;3.20;;
32872;SDS011;19224;52.462;16.898;2023-05-29T10:18:54;6.40;;;2.62;;
32872;SDS011;19224;52.462;16.898;2023-05-29T10:21:27;8.55;;;3.00;;
32872;SDS011;19224;52.462;16.898;2023-05-29T10:23:58;8.65;;;2.77;;
32872;SDS011;19224;52.462;16.898;2023-05-29T10:26:32;4.72;;;2.87;;
32872;SDS011;19224;52.462;16.898;2023-05-29T10:29:15;6.75;;;3.10;;
32872;SDS011;19224;52.462;16.898;2023-05-29T10:32:07;6.00;;;2.52;;
32872;SDS011;19224;52.462;16.898;2023-05-29T10:34:57;7.85;;;2.92;;
32872;SDS011;19224;52.462;16.898;2023-05-29T10:40:23;8.40;;;2.80;;
32872;SDS011;19224;52.462;16.898;2023-05-29T10:42:55;6.42;;;2.92;;
32872;SDS011;19224;52.462;16.898;2023-05-29T10:50:45;10.08;;;2.65;;
32872;SDS011;19224;52.462;16.898;2023-05-29T10:53:22;10.40;;;2.67;;
32872;SDS011;19224;52.462;16.898;2023-05-29T10:56:01;6.67;;;2.90;;
32872;SDS011;19224;52.462;16.898;2023-05-29T10:58:33;8.18;;;2.75;;
32872;SDS011;19224;52.462;16.898;2023-05-29T11:01:04;7.45;;;2.80;;
32872;SDS011;19224;52.462;16.898;2023-05-29T11:03:36;6.85;;;3.02;;
32872;SDS011;19224;52.462;16.898;2023-05-29T11:06:07;5.22;;;2.45;;
32872;SDS011;19224;52.462;16.898;2023-05-29T11:08:54;15.03;;;3.12;;
32872;SDS011;19224;52.462;16.898;2023-05-29T11:11:29;7.37;;;2.75;;
32872;SDS011;19224;52.462;16.898;2023-05-29T11:14:05;6.55;;;2.98;;
32872;SDS011;19224;52.462;16.898;2023-05-29T11:16:36;8.00;;;2.70;;
32872;SDS011;19224;52.462;16.898;2023-05-29T11:19:07;4.83;;;2.75;;
32872;SDS011;19224;52.462;16.898;2023-05-29T11:21:44;4.45;;;2.42;;
32872;SDS011;19224;52.462;16.898;2023-05-29T11:24:28;11.75;;;2.98;;
32872;SDS011;19224;52.462;16.898;2023-05-29T11:26:57;4.62;;;2.75;;
32872;SDS011;19224;52.462;16.898;2023-05-29T11:29:29;5.78;;;2.83;;
32872;SDS011;19224;52.462;16.898;2023-05-29T11:32:03;5.90;;;2.50;;
32872;SDS011;19224;52.462;16.898;2023-05-29T11:34:38;5.97;;;2.90;;
32872;SDS011;19224;52.462;16.898;2023-05-29T11:37:12;5.60;;;2.67;;
32872;SDS011;19224;52.462;16.898;2023-05-29T11:39:45;8.20;;;2.90;;
32872;SDS011;19224;52.462;16.898;2023-05-29T11:42:15;9.28;;;2.83;;
32872;SDS011;19224;52.462;16.898;2023-05-29T11:44:45;3.95;;;2.83;;
32872;SDS011;19224;52.462;16.898;2023-05-29T11:47:16;9.05;;;3.22;;
32872;SDS011;19224;52.462;16.898;2023-05-29T11:49:46;5.33;;;2.50;;
32872;SDS011;19224;52.462;16.898;2023-05-29T11:52:16;10.03;;;2.58;;
32872;SDS011;19224;52.462;16.898;2023-05-29T11:54:49;6.67;;;2.72;;
32872;SDS011;19224;52.462;16.898;2023-05-29T11:57:21;11.10;;;2.90;;
32872;SDS011;19224;52.462;16.898;2023-05-29T11:59:52;11.97;;;2.55;;
32872;SDS011;19224;52.462;16.898;2023-05-29T12:02:24;5.17;;;2.37;;
32872;SDS011;19224;52.462;16.898;2023-05-29T12:05:06;6.58;;;2.50;;
32872;SDS011;19224;52.462;16.898;2023-05-29T12:07:37;7.97;;;3.27;;
32872;SDS011;19224;52.462;16.898;2023-05-29T12:10:14;5.65;;;2.70;;
32872;SDS011;19224;52.462;16.898;2023-05-29T12:12:50;7.75;;;2.50;;
32872;SDS011;19224;52.462;16.898;2023-05-29T12:15:29;5.85;;;2.77;;
32872;SDS011;19224;52.462;16.898;2023-05-29T12:17:59;5.67;;;2.85;;
32872;SDS011;19224;52.462;16.898;2023-05-29T12:20:30;4.33;;;2.65;;
32872;SDS011;19224;52.462;16.898;2023-05-29T12:23:01;6.65;;;2.70;;
32872;SDS011;19224;52.462;16.898;2023-05-29T12:25:33;3.83;;;2.35;;
32872;SDS011;19224;52.462;16.898;2023-05-29T12:28:06;7.17;;;2.50;;
32872;SDS011;19224;52.462;16.898;2023-05-29T12:30:36;4.65;;;2.25;;
32872;SDS011;19224;52.462;16.898;2023-05-29T12:33:09;4.87;;;2.20;;
32872;SDS011;19224;52.462;16.898;2023-05-29T12:35:41;4.05;;;2.70;;
32872;SDS011;19224;52.462;16.898;2023-05-29T12:38:18;4.55;;;2.30;;
32872;SDS011;19224;52.462;16.898;2023-05-29T12:40:48;5.83;;;2.58;;
32872;SDS011;19224;52.462;16.898;2023-05-29T12:43:20;4.37;;;2.00;;
32872;SDS011;19224;52.462;16.898;2023-05-29T12:45:57;2.92;;;2.12;;
32872;SDS011;19224;52.462;16.898;2023-05-29T12:48:28;6.87;;;2.30;;
32872;SDS011;19224;52.462;16.898;2023-05-29T12:50:59;4.90;;;2.20;;
32872;SDS011;19224;52.462;16.898;2023-05-29T12:53:35;4.50;;;2.30;;
32872;SDS011;19224;52.462;16.898;2023-05-29T12:56:06;6.50;;;2.30;;
32872;SDS011;19224;52.462;16.898;2023-05-29T12:58:36;7.30;;;2.30;;
32872;SDS011;19224;52.462;16.898;2023-05-29T13:01:11;3.00;;;2.15;;
32872;SDS011;19224;52.462;16.898;2023-05-29T13:03:42;6.00;;;2.60;;
32872;SDS011;19224;52.462;16.898;2023-05-29T13:06:12;9.20;;;3.02;;
32872;SDS011;19224;52.462;16.898;2023-05-29T13:08:43;4.97;;;2.58;;
32872;SDS011;19224;52.462;16.898;2023-05-29T13:11:13;5.12;;;2.40;;
32872;SDS011;19224;52.462;16.898;2023-05-29T13:13:44;7.95;;;2.42;;
32872;SDS011;19224;52.462;16.898;2023-05-29T13:16:14;9.35;;;2.75;;
32872;SDS011;19224;52.462;16.898;2023-05-29T13:18:45;5.75;;;2.20;;
32872;SDS011;19224;52.462;16.898;2023-05-29T13:21:15;4.37;;;2.40;;
32872;SDS011;19224;52.462;16.898;2023-05-29T13:23:46;4.58;;;2.35;;
32872;SDS011;19224;52.462;16.898;2023-05-29T13:26:16;4.60;;;2.45;;
32872;SDS011;19224;52.462;16.898;2023-05-29T13:28:46;7.85;;;2.40;;
32872;SDS011;19224;52.462;16.898;2023-05-29T13:31:19;8.80;;;2.60;;
32872;SDS011;19224;52.462;16.898;2023-05-29T13:33:49;4.15;;;2.25;;
32872;SDS011;19224;52.462;16.898;2023-05-29T13:36:19;5.42;;;2.47;;
32872;SDS011;19224;52.462;16.898;2023-05-29T13:38:50;11.20;;;3.17;;
32872;SDS011;19224;52.462;16.898;2023-05-29T13:41:20;4.72;;;2.15;;
32872;SDS011;19224;52.462;16.898;2023-05-29T13:43:51;8.18;;;2.40;;
32872;SDS011;19224;52.462;16.898;2023-05-29T13:46:21;6.95;;;2.12;;
32872;SDS011;19224;52.462;16.898;2023-05-29T13:48:51;6.30;;;2.40;;
32872;SDS011;19224;52.462;16.898;2023-05-29T13:51:22;6.75;;;2.10;;
32872;SDS011;19224;52.462;16.898;2023-05-29T13:53:52;10.58;;;4.80;;
32872;SDS011;19224;52.462;16.898;2023-05-29T13:56:22;8.90;;;2.25;;
32872;SDS011;19224;52.462;16.898;2023-05-29T13:58:54;6.30;;;2.75;;
32872;SDS011;19224;52.462;16.898;2023-05-29T14:01:31;6.80;;;2.35;;
32872;SDS011;19224;52.462;16.898;2023-05-29T14:04:05;3.83;;;2.30;;
32872;SDS011;19224;52.462;16.898;2023-05-29T14:06:35;5.20;;;2.30;;
32872;SDS011;19224;52.462;16.898;2023-05-29T14:09:06;4.92;;;2.02;;
32872;SDS011;19224;52.462;16.898;2023-05-29T14:11:39;4.95;;;2.47;;
32872;SDS011;19224;52.462;16.898;2023-05-29T14:14:10;5.05;;;2.37;;
32872;SDS011;19224;52.462;16.898;2023-05-29T14:16:40;5.50;;;2.20;;
32872;SDS011;19224;52.462;16.898;2023-05-29T14:19:10;3.42;;;2.17;;
32872;SDS011;19224;52.462;16.898;2023-05-29T14:21:40;13.13;;;4.42;;
32872;SDS011;19224;52.462;16.898;2023-05-29T14:24:11;4.58;;;2.37;;
32872;SDS011;19224;52.462;16.898;2023-05-29T14:26:43;5.08;;;2.12;;
32872;SDS011;19224;52.462;16.898;2023-05-29T14:29:14;9.10;;;3.77;;
32872;SDS011;19224;52.462;16.898;2023-05-29T14:31:45;3.72;;;2.15;;
32872;SDS011;19224;52.462;16.898;2023-05-29T14:34:15;8.65;;;2.10;;
32872;SDS011;19224;52.462;16.898;2023-05-29T14:36:47;4.97;;;2.12;;
32872;SDS011;19224;52.462;16.898;2023-05-29T14:39:18;7.62;;;2.30;;
32872;SDS011;19224;52.462;16.898;2023-05-29T14:41:48;6.30;;;2.30;;
32872;SDS011;19224;52.462;16.898;2023-05-29T14:44:28;5.22;;;2.30;;
32872;SDS011;19224;52.462;16.898;2023-05-29T14:46:59;5.62;;;1.90;;
32872;SDS011;19224;52.462;16.898;2023-05-29T14:49:29;10.65;;;2.60;;
32872;SDS011;19224;52.462;16.898;2023-05-29T14:52:09;7.47;;;2.20;;
32872;SDS011;19224;52.462;16.898;2023-05-29T14:54:39;4.75;;;2.30;;
32872;SDS011;19224;52.462;16.898;2023-05-29T14:57:11;5.17;;;1.90;;
32872;SDS011;19224;52.462;16.898;2023-05-29T14:59:41;8.35;;;2.35;;
32872;SDS011;19224;52.462;16.898;2023-05-29T15:02:12;7.08;;;2.00;;
32872;SDS011;19224;52.462;16.898;2023-05-29T15:04:45;3.92;;;2.15;;
32872;SDS011;19224;52.462;16.898;2023-05-29T15:07:17;5.72;;;2.25;;
32872;SDS011;19224;52.462;16.898;2023-05-29T15:09:48;3.75;;;2.20;;
32872;SDS011;19224;52.462;16.898;2023-05-29T15:12:18;6.75;;;2.22;;
32872;SDS011;19224;52.462;16.898;2023-05-29T15:14:48;6.10;;;2.12;;